sensor_id;sensor_type;location;lat;lon;timestamp;temperature;humidity
84053;DHT22;74140;44.988;4.976;2023-11-21T00:02:04;11.00;70.60
84053;DHT22;74140;44.988;4.976;2023-11-21T00:04:30;10.90;70.80
84053;DHT22;74140;44.988;4.976;2023-11-21T00:06:56;10.90;71.10
84053;DHT22;74140;44.988;4.976;2023-11-21T00:09:21;10.90;71.50
84053;DHT22;74140;44.988;4.976;2023-11-21T00:11:47;11.00;71.00
84053;DHT22;74140;44.988;4.976;2023-11-21T00:14:13;11.10;70.70
84053;DHT22;74140;44.988;4.976;2023-11-21T00:16:41;11.20;70.70
84053;DHT22;74140;44.988;4.976;2023-11-21T00:19:06;11.20;70.60
84053;DHT22;74140;44.988;4.976;2023-11-21T00:21:32;11.20;70.80
84053;DHT22;74140;44.988;4.976;2023-11-21T00:23:58;11.20;70.60
84053;DHT22;74140;44.988;4.976;2023-11-21T00:26:23;11.30;70.30
84053;DHT22;74140;44.988;4.976;2023-11-21T00:28:50;11.30;70.30
84053;DHT22;74140;44.988;4.976;2023-11-21T00:31:16;11.40;68.90
84053;DHT22;74140;44.988;4.976;2023-11-21T00:33:41;11.50;68.00
84053;DHT22;74140;44.988;4.976;2023-11-21T00:36:08;11.60;67.40
84053;DHT22;74140;44.988;4.976;2023-11-21T00:38:36;11.50;66.80
84053;DHT22;74140;44.988;4.976;2023-11-21T00:41:01;11.50;67.30
84053;DHT22;74140;44.988;4.976;2023-11-21T00:43:28;11.50;66.90
84053;DHT22;74140;44.988;4.976;2023-11-21T00:45:54;11.60;68.50
84053;DHT22;74140;44.988;4.976;2023-11-21T00:48:19;11.50;68.30
84053;DHT22;74140;44.988;4.976;2023-11-21T00:50:45;11.50;67.70
84053;DHT22;74140;44.988;4.976;2023-11-21T00:53:11;11.60;68.10
84053;DHT22;74140;44.988;4.976;2023-11-21T00:55:37;11.60;68.30
84053;DHT22;74140;44.988;4.976;2023-11-21T00:58:05;11.60;68.60
84053;DHT22;74140;44.988;4.976;2023-11-21T01:00:35;11.60;68.70
84053;DHT22;74140;44.988;4.976;2023-11-21T01:03:01;11.60;68.10
84053;DHT22;74140;44.988;4.976;2023-11-21T01:05:27;11.70;66.70
84053;DHT22;74140;44.988;4.976;2023-11-21T01:07:53;11.80;66.00
84053;DHT22;74140;44.988;4.976;2023-11-21T01:10:19;11.80;65.60
84053;DHT22;74140;44.988;4.976;2023-11-21T01:12:44;11.80;65.90
84053;DHT22;74140;44.988;4.976;2023-11-21T01:15:10;11.80;66.10
84053;DHT22;74140;44.988;4.976;2023-11-21T01:17:41;11.80;65.90
84053;DHT22;74140;44.988;4.976;2023-11-21T01:20:07;11.80;66.80
84053;DHT22;74140;44.988;4.976;2023-11-21T01:22:37;11.70;67.30
84053;DHT22;74140;44.988;4.976;2023-11-21T01:25:02;11.60;67.80
84053;DHT22;74140;44.988;4.976;2023-11-21T01:27:32;11.50;68.10
84053;DHT22;74140;44.988;4.976;2023-11-21T01:29:58;11.50;68.00
84053;DHT22;74140;44.988;4.976;2023-11-21T01:32:24;11.50;68.00
84053;DHT22;74140;44.988;4.976;2023-11-21T01:34:50;11.40;68.10
84053;DHT22;74140;44.988;4.976;2023-11-21T01:37:16;11.50;67.20
84053;DHT22;74140;44.988;4.976;2023-11-21T01:39:43;11.50;65.90
84053;DHT22;74140;44.988;4.976;2023-11-21T01:42:09;11.50;66.00
84053;DHT22;74140;44.988;4.976;2023-11-21T01:44:35;11.40;65.80
84053;DHT22;74140;44.988;4.976;2023-11-21T01:47:01;11.40;66.10
84053;DHT22;74140;44.988;4.976;2023-11-21T01:49:33;11.30;66.40
84053;DHT22;74140;44.988;4.976;2023-11-21T01:51:59;11.30;66.10
84053;DHT22;74140;44.988;4.976;2023-11-21T01:54:25;11.20;66.20
84053;DHT22;74140;44.988;4.976;2023-11-21T01:56:51;11.20;66.60
84053;DHT22;74140;44.988;4.976;2023-11-21T01:59:20;11.20;65.80
84053;DHT22;74140;44.988;4.976;2023-11-21T02:01:50;11.10;66.00
84053;DHT22;74140;44.988;4.976;2023-11-21T02:04:17;11.10;65.70
84053;DHT22;74140;44.988;4.976;2023-11-21T02:06:43;11.00;65.40
84053;DHT22;74140;44.988;4.976;2023-11-21T02:09:09;11.00;65.40
84053;DHT22;74140;44.988;4.976;2023-11-21T02:11:35;10.90;65.80
84053;DHT22;74140;44.988;4.976;2023-11-21T02:14:03;10.90;65.60
84053;DHT22;74140;44.988;4.976;2023-11-21T02:16:32;10.80;66.80
84053;DHT22;74140;44.988;4.976;2023-11-21T02:18:59;10.70;66.70
84053;DHT22;74140;44.988;4.976;2023-11-21T02:21:25;10.60;67.30
84053;DHT22;74140;44.988;4.976;2023-11-21T02:23:51;10.60;67.30
84053;DHT22;74140;44.988;4.976;2023-11-21T02:26:16;10.50;67.80
84053;DHT22;74140;44.988;4.976;2023-11-21T02:28:42;10.50;68.20
84053;DHT22;74140;44.988;4.976;2023-11-21T02:31:08;10.30;68.60
84053;DHT22;74140;44.988;4.976;2023-11-21T02:33:34;10.40;68.80
84053;DHT22;74140;44.988;4.976;2023-11-21T02:36:00;10.50;68.40
84053;DHT22;74140;44.988;4.976;2023-11-21T02:38:26;10.40;68.70
84053;DHT22;74140;44.988;4.976;2023-11-21T02:40:52;10.50;69.10
84053;DHT22;74140;44.988;4.976;2023-11-21T02:43:19;10.60;68.60
84053;DHT22;74140;44.988;4.976;2023-11-21T02:45:44;10.60;68.30
84053;DHT22;74140;44.988;4.976;2023-11-21T02:48:10;10.80;68.20
84053;DHT22;74140;44.988;4.976;2023-11-21T02:50:36;10.80;68.10
84053;DHT22;74140;44.988;4.976;2023-11-21T02:53:03;10.70;68.10
84053;DHT22;74140;44.988;4.976;2023-11-21T02:55:29;10.70;67.90
84053;DHT22;74140;44.988;4.976;2023-11-21T02:57:56;10.70;67.70
84053;DHT22;74140;44.988;4.976;2023-11-21T03:00:22;10.70;67.60
84053;DHT22;74140;44.988;4.976;2023-11-21T03:02:49;10.70;67.40
84053;DHT22;74140;44.988;4.976;2023-11-21T03:05:15;10.60;67.60
84053;DHT22;74140;44.988;4.976;2023-11-21T03:07:41;10.50;68.10
84053;DHT22;74140;44.988;4.976;2023-11-21T03:10:08;10.60;68.00
84053;DHT22;74140;44.988;4.976;2023-11-21T03:12:40;10.60;68.10
84053;DHT22;74140;44.988;4.976;2023-11-21T03:15:08;10.70;68.10
84053;DHT22;74140;44.988;4.976;2023-11-21T03:17:34;10.80;67.70
84053;DHT22;74140;44.988;4.976;2023-11-21T03:20:00;10.80;67.30
84053;DHT22;74140;44.988;4.976;2023-11-21T03:22:26;10.80;67.70
84053;DHT22;74140;44.988;4.976;2023-11-21T03:24:52;10.90;67.00
84053;DHT22;74140;44.988;4.976;2023-11-21T03:27:18;11.00;66.70
84053;DHT22;74140;44.988;4.976;2023-11-21T03:29:44;11.00;66.40
84053;DHT22;74140;44.988;4.976;2023-11-21T03:32:12;11.10;65.50
84053;DHT22;74140;44.988;4.976;2023-11-21T03:34:53;11.20;65.80
84053;DHT22;74140;44.988;4.976;2023-11-21T03:37:20;11.20;65.80
84053;DHT22;74140;44.988;4.976;2023-11-21T03:39:46;11.10;66.20
84053;DHT22;74140;44.988;4.976;2023-11-21T03:42:12;11.10;66.20
84053;DHT22;74140;44.988;4.976;2023-11-21T03:44:38;11.10;66.40
84053;DHT22;74140;44.988;4.976;2023-11-21T03:47:03;11.00;66.60
84053;DHT22;74140;44.988;4.976;2023-11-21T03:49:29;11.00;66.20
84053;DHT22;74140;44.988;4.976;2023-11-21T03:51:56;11.00;65.50
84053;DHT22;74140;44.988;4.976;2023-11-21T03:54:22;11.10;65.40
84053;DHT22;74140;44.988;4.976;2023-11-21T03:56:47;11.10;65.80
84053;DHT22;74140;44.988;4.976;2023-11-21T03:59:13;11.10;66.20
84053;DHT22;74140;44.988;4.976;2023-11-21T04:01:39;11.00;65.70
84053;DHT22;74140;44.988;4.976;2023-11-21T04:04:04;11.10;66.00
84053;DHT22;74140;44.988;4.976;2023-11-21T04:06:30;11.10;66.00
84053;DHT22;74140;44.988;4.976;2023-11-21T04:08:58;11.10;66.00
84053;DHT22;74140;44.988;4.976;2023-11-21T04:11:24;11.20;65.90
84053;DHT22;74140;44.988;4.976;2023-11-21T04:13:49;11.20;65.50
84053;DHT22;74140;44.988;4.976;2023-11-21T04:16:15;11.20;65.40
84053;DHT22;74140;44.988;4.976;2023-11-21T04:18:40;11.20;65.10
84053;DHT22;74140;44.988;4.976;2023-11-21T04:21:07;11.30;65.20
84053;DHT22;74140;44.988;4.976;2023-11-21T04:23:33;11.20;65.30
84053;DHT22;74140;44.988;4.976;2023-11-21T04:26:00;11.20;64.60
84053;DHT22;74140;44.988;4.976;2023-11-21T04:28:27;11.30;64.50
84053;DHT22;74140;44.988;4.976;2023-11-21T04:30:53;11.30;64.70
84053;DHT22;74140;44.988;4.976;2023-11-21T04:33:19;11.40;64.50
84053;DHT22;74140;44.988;4.976;2023-11-21T04:35:45;11.40;64.70
84053;DHT22;74140;44.988;4.976;2023-11-21T04:38:10;11.30;65.10
84053;DHT22;74140;44.988;4.976;2023-11-21T04:40:36;11.10;65.40
84053;DHT22;74140;44.988;4.976;2023-11-21T04:43:02;11.10;65.50
84053;DHT22;74140;44.988;4.976;2023-11-21T04:45:27;11.10;65.30
84053;DHT22;74140;44.988;4.976;2023-11-21T04:47:53;11.20;65.40
84053;DHT22;74140;44.988;4.976;2023-11-21T04:50:19;11.20;64.70
84053;DHT22;74140;44.988;4.976;2023-11-21T04:52:45;11.30;64.50
84053;DHT22;74140;44.988;4.976;2023-11-21T04:55:11;11.30;64.40
84053;DHT22;74140;44.988;4.976;2023-11-21T04:57:37;11.10;64.80
84053;DHT22;74140;44.988;4.976;2023-11-21T05:00:03;11.00;65.00
84053;DHT22;74140;44.988;4.976;2023-11-21T05:02:32;11.00;65.10
84053;DHT22;74140;44.988;4.976;2023-11-21T05:04:59;11.00;64.90
84053;DHT22;74140;44.988;4.976;2023-11-21T05:07:25;11.10;64.50
84053;DHT22;74140;44.988;4.976;2023-11-21T05:09:54;11.10;64.20
84053;DHT22;74140;44.988;4.976;2023-11-21T05:12:21;11.10;64.40
84053;DHT22;74140;44.988;4.976;2023-11-21T05:14:49;11.20;64.40
84053;DHT22;74140;44.988;4.976;2023-11-21T05:17:14;11.10;64.60
84053;DHT22;74140;44.988;4.976;2023-11-21T05:19:40;11.10;64.40
84053;DHT22;74140;44.988;4.976;2023-11-21T05:22:06;11.10;64.60
84053;DHT22;74140;44.988;4.976;2023-11-21T05:24:33;11.10;64.80
84053;DHT22;74140;44.988;4.976;2023-11-21T05:26:59;11.10;65.20
84053;DHT22;74140;44.988;4.976;2023-11-21T05:29:25;11.10;64.90
84053;DHT22;74140;44.988;4.976;2023-11-21T05:31:51;11.00;65.60
84053;DHT22;74140;44.988;4.976;2023-11-21T05:34:17;11.00;65.10
84053;DHT22;74140;44.988;4.976;2023-11-21T05:36:45;11.10;64.90
84053;DHT22;74140;44.988;4.976;2023-11-21T05:39:11;11.10;64.60
84053;DHT22;74140;44.988;4.976;2023-11-21T05:41:37;11.20;64.50
84053;DHT22;74140;44.988;4.976;2023-11-21T05:44:03;11.10;64.60
84053;DHT22;74140;44.988;4.976;2023-11-21T05:46:28;11.10;65.00
84053;DHT22;74140;44.988;4.976;2023-11-21T05:48:54;11.10;65.00
84053;DHT22;74140;44.988;4.976;2023-11-21T05:51:20;11.10;64.90
84053;DHT22;74140;44.988;4.976;2023-11-21T05:53:46;11.20;64.80
84053;DHT22;74140;44.988;4.976;2023-11-21T05:56:12;11.20;65.30
84053;DHT22;74140;44.988;4.976;2023-11-21T05:58:39;11.10;64.80
84053;DHT22;74140;44.988;4.976;2023-11-21T06:01:06;11.10;65.20
84053;DHT22;74140;44.988;4.976;2023-11-21T06:03:35;11.10;65.40
84053;DHT22;74140;44.988;4.976;2023-11-21T06:06:03;11.00;65.00
84053;DHT22;74140;44.988;4.976;2023-11-21T06:08:30;11.00;66.00
84053;DHT22;74140;44.988;4.976;2023-11-21T06:10:55;10.90;65.50
84053;DHT22;74140;44.988;4.976;2023-11-21T06:13:21;10.90;65.80
84053;DHT22;74140;44.988;4.976;2023-11-21T06:15:50;10.90;66.30
84053;DHT22;74140;44.988;4.976;2023-11-21T06:18:16;10.90;65.90
84053;DHT22;74140;44.988;4.976;2023-11-21T06:20:45;10.90;66.40
84053;DHT22;74140;44.988;4.976;2023-11-21T06:23:11;10.90;66.30
84053;DHT22;74140;44.988;4.976;2023-11-21T06:25:36;10.90;65.90
84053;DHT22;74140;44.988;4.976;2023-11-21T06:28:02;10.90;66.00
84053;DHT22;74140;44.988;4.976;2023-11-21T06:30:28;10.90;66.10
84053;DHT22;74140;44.988;4.976;2023-11-21T06:32:56;10.90;66.20
84053;DHT22;74140;44.988;4.976;2023-11-21T06:35:22;10.90;66.10
84053;DHT22;74140;44.988;4.976;2023-11-21T06:37:48;10.90;66.70
84053;DHT22;74140;44.988;4.976;2023-11-21T06:40:14;10.90;66.40
84053;DHT22;74140;44.988;4.976;2023-11-21T06:42:44;10.90;66.00
84053;DHT22;74140;44.988;4.976;2023-11-21T06:45:10;10.90;66.60
84053;DHT22;74140;44.988;4.976;2023-11-21T06:47:36;10.90;66.10
84053;DHT22;74140;44.988;4.976;2023-11-21T06:50:03;10.90;66.40
84053;DHT22;74140;44.988;4.976;2023-11-21T06:52:29;10.80;66.60
84053;DHT22;74140;44.988;4.976;2023-11-21T06:54:55;10.80;66.80
84053;DHT22;74140;44.988;4.976;2023-11-21T06:57:23;10.80;67.00
84053;DHT22;74140;44.988;4.976;2023-11-21T06:59:48;10.80;67.00
84053;DHT22;74140;44.988;4.976;2023-11-21T07:02:16;10.80;67.10
84053;DHT22;74140;44.988;4.976;2023-11-21T07:04:46;10.80;67.90
84053;DHT22;74140;44.988;4.976;2023-11-21T07:07:12;10.70;67.60
84053;DHT22;74140;44.988;4.976;2023-11-21T07:09:38;10.70;68.20
84053;DHT22;74140;44.988;4.976;2023-11-21T07:12:05;10.70;68.50
84053;DHT22;74140;44.988;4.976;2023-11-21T07:14:34;10.60;68.90
84053;DHT22;74140;44.988;4.976;2023-11-21T07:17:00;10.60;68.80
84053;DHT22;74140;44.988;4.976;2023-11-21T07:19:26;10.40;70.00
84053;DHT22;74140;44.988;4.976;2023-11-21T07:21:51;10.20;70.70
84053;DHT22;74140;44.988;4.976;2023-11-21T07:24:17;10.20;70.30
84053;DHT22;74140;44.988;4.976;2023-11-21T07:26:43;10.40;69.90
84053;DHT22;74140;44.988;4.976;2023-11-21T07:29:12;10.50;69.50
84053;DHT22;74140;44.988;4.976;2023-11-21T07:31:38;10.70;69.50
84053;DHT22;74140;44.988;4.976;2023-11-21T07:34:05;10.70;69.50
84053;DHT22;74140;44.988;4.976;2023-11-21T07:36:31;10.80;69.60
84053;DHT22;74140;44.988;4.976;2023-11-21T07:38:57;10.80;69.30
84053;DHT22;74140;44.988;4.976;2023-11-21T07:41:27;10.90;69.10
84053;DHT22;74140;44.988;4.976;2023-11-21T07:43:55;11.00;69.30
84053;DHT22;74140;44.988;4.976;2023-11-21T07:46:23;10.90;69.40
84053;DHT22;74140;44.988;4.976;2023-11-21T07:49:22;10.80;69.60
84053;DHT22;74140;44.988;4.976;2023-11-21T07:52:00;10.80;70.10
84053;DHT22;74140;44.988;4.976;2023-11-21T07:54:26;10.80;70.50
84053;DHT22;74140;44.988;4.976;2023-11-21T08:15:06;11.20;69.50
84053;DHT22;74140;44.988;4.976;2023-11-21T08:35:03;12.00;68.90
84053;DHT22;74140;44.988;4.976;2023-11-21T08:37:33;12.00;67.50
84053;DHT22;74140;44.988;4.976;2023-11-21T08:43:57;11.80;68.40
84053;DHT22;74140;44.988;4.976;2023-11-21T11:43:36;12.90;63.50
84053;DHT22;74140;44.988;4.976;2023-11-21T11:53:25;12.90;63.30
84053;DHT22;74140;44.988;4.976;2023-11-21T12:09:31;13.20;63.40
84053;DHT22;74140;44.988;4.976;2023-11-21T14:59:32;13.30;60.50
84053;DHT22;74140;44.988;4.976;2023-11-21T15:02:35;13.30;60.80
84053;DHT22;74140;44.988;4.976;2023-11-21T15:23:01;12.80;60.40
84053;DHT22;74140;44.988;4.976;2023-11-21T16:26:45;11.00;64.90
84053;DHT22;74140;44.988;4.976;2023-11-21T16:29:12;11.00;64.90
84053;DHT22;74140;44.988;4.976;2023-11-21T16:31:40;11.00;64.80
84053;DHT22;74140;44.988;4.976;2023-11-21T16:34:14;11.00;64.90
84053;DHT22;74140;44.988;4.976;2023-11-21T16:36:43;10.90;65.10
84053;DHT22;74140;44.988;4.976;2023-11-21T16:39:17;10.80;65.40
84053;DHT22;74140;44.988;4.976;2023-11-21T16:42:09;10.80;65.40
84053;DHT22;74140;44.988;4.976;2023-11-21T16:44:35;10.70;65.50
84053;DHT22;74140;44.988;4.976;2023-11-21T16:47:01;10.70;65.40
84053;DHT22;74140;44.988;4.976;2023-11-21T16:49:39;10.70;65.50
84053;DHT22;74140;44.988;4.976;2023-11-21T16:52:07;10.70;65.50
84053;DHT22;74140;44.988;4.976;2023-11-21T16:54:33;10.60;65.60
84053;DHT22;74140;44.988;4.976;2023-11-21T16:56:59;10.50;65.90
84053;DHT22;74140;44.988;4.976;2023-11-21T16:59:25;10.30;66.20
84053;DHT22;74140;44.988;4.976;2023-11-21T17:01:51;10.30;66.20
84053;DHT22;74140;44.988;4.976;2023-11-21T17:04:16;10.30;66.30
84053;DHT22;74140;44.988;4.976;2023-11-21T17:06:47;10.30;66.30
84053;DHT22;74140;44.988;4.976;2023-11-21T17:09:13;10.30;66.30
84053;DHT22;74140;44.988;4.976;2023-11-21T17:11:43;10.30;66.30
84053;DHT22;74140;44.988;4.976;2023-11-21T17:14:09;10.30;66.00
84053;DHT22;74140;44.988;4.976;2023-11-21T17:16:35;10.40;66.00
84053;DHT22;74140;44.988;4.976;2023-11-21T17:19:01;10.40;66.00
84053;DHT22;74140;44.988;4.976;2023-11-21T17:21:30;10.40;66.00
84053;DHT22;74140;44.988;4.976;2023-11-21T17:24:43;10.40;65.90
84053;DHT22;74140;44.988;4.976;2023-11-21T17:40:11;10.10;66.40
84053;DHT22;74140;44.988;4.976;2023-11-21T17:42:57;10.20;66.30
84053;DHT22;74140;44.988;4.976;2023-11-21T17:48:54;10.20;66.40
84053;DHT22;74140;44.988;4.976;2023-11-21T17:51:50;10.10;66.60
84053;DHT22;74140;44.988;4.976;2023-11-21T17:54:23;10.00;66.90
84053;DHT22;74140;44.988;4.976;2023-11-21T17:57:14;10.10;66.90
84053;DHT22;74140;44.988;4.976;2023-11-21T17:59:40;10.20;66.90
84053;DHT22;74140;44.988;4.976;2023-11-21T18:02:07;10.20;66.90
84053;DHT22;74140;44.988;4.976;2023-11-21T18:04:34;10.30;66.80
84053;DHT22;74140;44.988;4.976;2023-11-21T18:07:04;10.30;66.50
84053;DHT22;74140;44.988;4.976;2023-11-21T18:09:31;10.30;66.70
84053;DHT22;74140;44.988;4.976;2023-11-21T18:11:57;10.40;66.60
84053;DHT22;74140;44.988;4.976;2023-11-21T18:14:25;10.50;66.40
84053;DHT22;74140;44.988;4.976;2023-11-21T18:16:53;10.50;66.30
84053;DHT22;74140;44.988;4.976;2023-11-21T18:19:21;10.50;66.30
84053;DHT22;74140;44.988;4.976;2023-11-21T18:21:46;10.50;66.30
84053;DHT22;74140;44.988;4.976;2023-11-21T18:24:15;10.50;66.30
84053;DHT22;74140;44.988;4.976;2023-11-21T18:26:41;10.60;66.20
84053;DHT22;74140;44.988;4.976;2023-11-21T18:29:07;10.50;66.00
84053;DHT22;74140;44.988;4.976;2023-11-21T18:31:34;10.40;66.10
84053;DHT22;74140;44.988;4.976;2023-11-21T18:33:59;10.40;66.10
84053;DHT22;74140;44.988;4.976;2023-11-21T18:36:25;10.40;66.30
84053;DHT22;74140;44.988;4.976;2023-11-21T18:38:51;10.30;66.30
84053;DHT22;74140;44.988;4.976;2023-11-21T18:41:20;10.30;66.30
84053;DHT22;74140;44.988;4.976;2023-11-21T18:43:47;10.30;66.40
84053;DHT22;74140;44.988;4.976;2023-11-21T18:46:14;10.20;66.40
84053;DHT22;74140;44.988;4.976;2023-11-21T18:48:39;10.20;66.50
84053;DHT22;74140;44.988;4.976;2023-11-21T18:51:07;10.20;66.60
84053;DHT22;74140;44.988;4.976;2023-11-21T18:53:33;10.10;66.60
84053;DHT22;74140;44.988;4.976;2023-11-21T18:56:00;10.10;66.80
84053;DHT22;74140;44.988;4.976;2023-11-21T18:58:26;10.10;66.90
84053;DHT22;74140;44.988;4.976;2023-11-21T19:00:53;10.10;66.70
84053;DHT22;74140;44.988;4.976;2023-11-21T19:03:18;10.10;66.90
84053;DHT22;74140;44.988;4.976;2023-11-21T19:05:44;10.20;67.00
84053;DHT22;74140;44.988;4.976;2023-11-21T19:08:10;10.20;66.90
84053;DHT22;74140;44.988;4.976;2023-11-21T19:10:36;10.30;66.60
84053;DHT22;74140;44.988;4.976;2023-11-21T19:13:03;10.30;66.40
84053;DHT22;74140;44.988;4.976;2023-11-21T19:15:30;10.20;66.50
84053;DHT22;74140;44.988;4.976;2023-11-21T19:17:56;10.20;66.50
84053;DHT22;74140;44.988;4.976;2023-11-21T19:20:24;10.20;66.40
84053;DHT22;74140;44.988;4.976;2023-11-21T19:22:50;10.20;66.40
84053;DHT22;74140;44.988;4.976;2023-11-21T19:25:15;10.20;66.40
84053;DHT22;74140;44.988;4.976;2023-11-21T19:27:41;10.20;66.40
84053;DHT22;74140;44.988;4.976;2023-11-21T19:30:08;10.10;66.50
84053;DHT22;74140;44.988;4.976;2023-11-21T19:32:37;10.20;66.50
84053;DHT22;74140;44.988;4.976;2023-11-21T19:35:03;10.20;66.50
84053;DHT22;74140;44.988;4.976;2023-11-21T19:37:29;10.20;66.40
84053;DHT22;74140;44.988;4.976;2023-11-21T19:39:55;10.10;66.50
84053;DHT22;74140;44.988;4.976;2023-11-21T19:42:21;10.00;66.70
84053;DHT22;74140;44.988;4.976;2023-11-21T19:44:49;10.00;66.90
84053;DHT22;74140;44.988;4.976;2023-11-21T19:47:14;9.90;67.00
84053;DHT22;74140;44.988;4.976;2023-11-21T19:49:40;9.90;67.10
84053;DHT22;74140;44.988;4.976;2023-11-21T19:52:06;9.90;67.10
84053;DHT22;74140;44.988;4.976;2023-11-21T19:54:35;9.90;67.00
84053;DHT22;74140;44.988;4.976;2023-11-21T19:57:01;9.80;67.20
84053;DHT22;74140;44.988;4.976;2023-11-21T20:02:32;9.90;67.30
84053;DHT22;74140;44.988;4.976;2023-11-21T20:05:02;9.90;67.50
84053;DHT22;74140;44.988;4.976;2023-11-21T20:07:27;10.00;67.40
84053;DHT22;74140;44.988;4.976;2023-11-21T20:09:54;10.00;67.20
84053;DHT22;74140;44.988;4.976;2023-11-21T20:12:20;10.10;67.20
84053;DHT22;74140;44.988;4.976;2023-11-21T20:14:46;10.10;67.30
84053;DHT22;74140;44.988;4.976;2023-11-21T20:17:12;10.10;67.20
84053;DHT22;74140;44.988;4.976;2023-11-21T20:19:40;10.20;67.00
84053;DHT22;74140;44.988;4.976;2023-11-21T20:22:07;10.20;66.80
84053;DHT22;74140;44.988;4.976;2023-11-21T20:24:33;10.20;66.80
84053;DHT22;74140;44.988;4.976;2023-11-21T20:27:04;10.30;66.80
84053;DHT22;74140;44.988;4.976;2023-11-21T20:29:30;10.30;66.60
84053;DHT22;74140;44.988;4.976;2023-11-21T20:31:57;10.20;66.50
84053;DHT22;74140;44.988;4.976;2023-11-21T20:34:23;10.20;66.80
84053;DHT22;74140;44.988;4.976;2023-11-21T20:36:49;10.10;66.70
84053;DHT22;74140;44.988;4.976;2023-11-21T20:39:15;10.20;66.60
84053;DHT22;74140;44.988;4.976;2023-11-21T20:41:45;10.10;66.80
84053;DHT22;74140;44.988;4.976;2023-11-21T20:44:11;10.10;66.70
84053;DHT22;74140;44.988;4.976;2023-11-21T20:46:44;10.00;66.80
84053;DHT22;74140;44.988;4.976;2023-11-21T20:49:11;10.00;66.90
84053;DHT22;74140;44.988;4.976;2023-11-21T20:51:38;10.00;67.00
84053;DHT22;74140;44.988;4.976;2023-11-21T20:54:04;10.00;67.10
84053;DHT22;74140;44.988;4.976;2023-11-21T20:56:31;10.00;67.30
84053;DHT22;74140;44.988;4.976;2023-11-21T20:58:57;10.00;67.20
84053;DHT22;74140;44.988;4.976;2023-11-21T21:01:26;10.00;67.30
84053;DHT22;74140;44.988;4.976;2023-11-21T21:03:52;10.00;67.10
84053;DHT22;74140;44.988;4.976;2023-11-21T21:06:17;10.00;67.10
84053;DHT22;74140;44.988;4.976;2023-11-21T21:08:43;9.90;67.30
84053;DHT22;74140;44.988;4.976;2023-11-21T21:11:09;10.00;67.20
84053;DHT22;74140;44.988;4.976;2023-11-21T21:13:35;10.00;67.10
84053;DHT22;74140;44.988;4.976;2023-11-21T21:16:01;10.00;67.20
84053;DHT22;74140;44.988;4.976;2023-11-21T21:18:27;10.10;66.90
84053;DHT22;74140;44.988;4.976;2023-11-21T21:20:54;10.00;66.90
84053;DHT22;74140;44.988;4.976;2023-11-21T21:23:20;10.10;66.90
84053;DHT22;74140;44.988;4.976;2023-11-21T21:25:46;10.10;66.50
84053;DHT22;74140;44.988;4.976;2023-11-21T21:28:12;10.10;66.80
84053;DHT22;74140;44.988;4.976;2023-11-21T21:30:41;10.10;66.80
84053;DHT22;74140;44.988;4.976;2023-11-21T21:33:08;10.20;66.60
84053;DHT22;74140;44.988;4.976;2023-11-21T21:35:34;10.10;66.50
84053;DHT22;74140;44.988;4.976;2023-11-21T21:38:00;10.00;66.60
84053;DHT22;74140;44.988;4.976;2023-11-21T21:40:26;10.00;66.60
84053;DHT22;74140;44.988;4.976;2023-11-21T21:42:55;10.00;66.70
84053;DHT22;74140;44.988;4.976;2023-11-21T21:45:21;10.00;66.60
84053;DHT22;74140;44.988;4.976;2023-11-21T21:47:53;10.00;66.50
84053;DHT22;74140;44.988;4.976;2023-11-21T21:50:19;10.00;66.60
84053;DHT22;74140;44.988;4.976;2023-11-21T21:52:45;10.10;66.60
84053;DHT22;74140;44.988;4.976;2023-11-21T21:55:11;10.10;66.50
84053;DHT22;74140;44.988;4.976;2023-11-21T21:57:40;10.10;66.50
84053;DHT22;74140;44.988;4.976;2023-11-21T22:00:07;10.10;66.40
84053;DHT22;74140;44.988;4.976;2023-11-21T22:02:33;10.10;66.60
84053;DHT22;74140;44.988;4.976;2023-11-21T22:04:59;10.10;66.40
84053;DHT22;74140;44.988;4.976;2023-11-21T22:07:25;10.10;66.40
84053;DHT22;74140;44.988;4.976;2023-11-21T22:09:51;10.20;66.50
84053;DHT22;74140;44.988;4.976;2023-11-21T22:12:19;10.30;66.20
84053;DHT22;74140;44.988;4.976;2023-11-21T22:14:44;10.30;66.00
84053;DHT22;74140;44.988;4.976;2023-11-21T22:17:10;10.40;65.90
84053;DHT22;74140;44.988;4.976;2023-11-21T22:19:36;10.30;65.80
84053;DHT22;74140;44.988;4.976;2023-11-21T22:22:02;10.30;65.90
84053;DHT22;74140;44.988;4.976;2023-11-21T22:24:28;10.30;66.10
84053;DHT22;74140;44.988;4.976;2023-11-21T22:26:58;10.30;66.00
84053;DHT22;74140;44.988;4.976;2023-11-21T22:29:24;10.30;66.00
84053;DHT22;74140;44.988;4.976;2023-11-21T22:31:50;10.30;66.00
84053;DHT22;74140;44.988;4.976;2023-11-21T22:34:15;10.30;66.00
84053;DHT22;74140;44.988;4.976;2023-11-21T22:36:41;10.30;66.10
84053;DHT22;74140;44.988;4.976;2023-11-21T22:39:07;10.40;66.00
84053;DHT22;74140;44.988;4.976;2023-11-21T22:41:34;10.40;65.90
84053;DHT22;74140;44.988;4.976;2023-11-21T22:44:00;10.40;65.90
84053;DHT22;74140;44.988;4.976;2023-11-21T22:46:25;10.40;65.90
84053;DHT22;74140;44.988;4.976;2023-11-21T22:48:51;10.40;66.00
84053;DHT22;74140;44.988;4.976;2023-11-21T22:51:17;10.40;65.80
84053;DHT22;74140;44.988;4.976;2023-11-21T22:53:45;10.40;65.70
84053;DHT22;74140;44.988;4.976;2023-11-21T22:56:11;10.40;65.70
84053;DHT22;74140;44.988;4.976;2023-11-21T22:58:37;10.40;65.70
84053;DHT22;74140;44.988;4.976;2023-11-21T23:01:03;10.40;65.50
84053;DHT22;74140;44.988;4.976;2023-11-21T23:03:30;10.40;65.30
84053;DHT22;74140;44.988;4.976;2023-11-21T23:05:56;10.30;65.50
84053;DHT22;74140;44.988;4.976;2023-11-21T23:08:22;10.40;65.50
84053;DHT22;74140;44.988;4.976;2023-11-21T23:10:49;10.40;65.40
84053;DHT22;74140;44.988;4.976;2023-11-21T23:13:18;10.40;65.40
84053;DHT22;74140;44.988;4.976;2023-11-21T23:15:45;10.40;65.40
84053;DHT22;74140;44.988;4.976;2023-11-21T23:18:17;10.40;65.30
84053;DHT22;74140;44.988;4.976;2023-11-21T23:20:52;10.40;65.40
84053;DHT22;74140;44.988;4.976;2023-11-21T23:23:18;10.40;65.30
84053;DHT22;74140;44.988;4.976;2023-11-21T23:25:48;10.40;65.40
84053;DHT22;74140;44.988;4.976;2023-11-21T23:28:13;10.40;65.30
84053;DHT22;74140;44.988;4.976;2023-11-21T23:30:41;10.40;65.30
84053;DHT22;74140;44.988;4.976;2023-11-21T23:33:06;10.40;65.50
84053;DHT22;74140;44.988;4.976;2023-11-21T23:35:32;10.40;65.30
84053;DHT22;74140;44.988;4.976;2023-11-21T23:37:58;10.30;65.10
84053;DHT22;74140;44.988;4.976;2023-11-21T23:40:23;10.30;65.20
84053;DHT22;74140;44.988;4.976;2023-11-21T23:42:49;10.30;65.40
84053;DHT22;74140;44.988;4.976;2023-11-21T23:45:15;10.30;65.50
84053;DHT22;74140;44.988;4.976;2023-11-21T23:47:41;10.40;65.40
84053;DHT22;74140;44.988;4.976;2023-11-21T23:50:08;10.40;65.20
84053;DHT22;74140;44.988;4.976;2023-11-21T23:52:33;10.30;65.20
84053;DHT22;74140;44.988;4.976;2023-11-21T23:54:59;10.20;65.20